Pfugerville's Hourly Summary for Thursday, April 13, 2017
Hour Temp
(f)
RH
(%)
Solar Rad.
(MJ/m2)
Rainfall
(in)
Wind
(mph)
4/13/2017 12:00 AM 68 100 0 0 3.18
4/13/2017 1:00 AM 66 100 0 0 1.37
4/13/2017 2:00 AM 66 100 0 0 2.83
4/13/2017 3:00 AM 66 100 0 0 0.74
4/13/2017 4:00 AM 65 100 0 0 0.03
4/13/2017 5:00 AM 66 100 0 0 0.02
4/13/2017 6:00 AM 66 100 0 0 0.02
4/13/2017 7:00 AM 66 100 0 0 0.03
4/13/2017 8:00 AM 65 100 0.07 0 0.82
4/13/2017 9:00 AM 66 100 0.33 0 3.61
4/13/2017 10:00 AM 68 100 0.68 0 3.96
4/13/2017 11:00 AM 71 100 1.08 0 6.16
4/13/2017 12:00 PM 74 99 2.66 0 8.34
4/13/2017 1:00 PM 77 78 3.18 0 9.17
4/13/2017 2:00 PM 77 75 2.57 0 7.47
4/13/2017 3:00 PM 78 71 2.93 0 8.04
4/13/2017 4:00 PM 78 69 1.82 0 6.71
4/13/2017 5:00 PM 78 67 1.72 0 7.83
4/13/2017 6:00 PM 78 65 0.94 0 8.53
4/13/2017 7:00 PM 76 68 0.55 0 8.19
4/13/2017 8:00 PM 74 74 0.11 0 7.01
4/13/2017 9:00 PM 71 78 0 0 3.31
4/13/2017 10:00 PM 69 88 0 0 2.7
4/13/2017 11:00 PM 68 90 0 0 5.04
Data Summary 70 88 18.64 0.00 4.38